sensor_id;sensor_type;location;lat;lon;timestamp;P1;durP1;ratioP1;P2;durP2;ratioP2
44358;SDS011;30077;52.474;13.326;2022-09-01T00:03:16;1.88;;;1.08;;
44358;SDS011;30077;52.474;13.326;2022-09-01T00:08:17;1.70;;;1.38;;
44358;SDS011;30077;52.474;13.326;2022-09-01T00:13:17;2.78;;;0.93;;
44358;SDS011;30077;52.474;13.326;2022-09-01T00:18:18;2.13;;;1.10;;
44358;SDS011;30077;52.474;13.326;2022-09-01T00:23:18;1.83;;;1.00;;
44358;SDS011;30077;52.474;13.326;2022-09-01T00:28:18;1.63;;;1.17;;
44358;SDS011;30077;52.474;13.326;2022-09-01T00:33:19;5.88;;;1.38;;
44358;SDS011;30077;52.474;13.326;2022-09-01T00:38:19;7.25;;;1.52;;
44358;SDS011;30077;52.474;13.326;2022-09-01T00:43:21;0.80;;;0.75;;
44358;SDS011;30077;52.474;13.326;2022-09-01T00:48:37;1.60;;;1.08;;
44358;SDS011;30077;52.474;13.326;2022-09-01T00:53:38;2.92;;;0.95;;
44358;SDS011;30077;52.474;13.326;2022-09-01T00:58:40;2.30;;;1.02;;
44358;SDS011;30077;52.474;13.326;2022-09-01T01:03:41;3.88;;;1.40;;
44358;SDS011;30077;52.474;13.326;2022-09-01T01:08:46;2.92;;;1.20;;
44358;SDS011;30077;52.474;13.326;2022-09-01T01:14:00;2.00;;;0.95;;
44358;SDS011;30077;52.474;13.326;2022-09-01T01:24:41;2.35;;;1.17;;
44358;SDS011;30077;52.474;13.326;2022-09-01T01:29:42;1.30;;;0.90;;
44358;SDS011;30077;52.474;13.326;2022-09-01T01:34:42;2.17;;;1.10;;
44358;SDS011;30077;52.474;13.326;2022-09-01T01:39:44;1.75;;;1.08;;
44358;SDS011;30077;52.474;13.326;2022-09-01T01:44:47;1.38;;;1.00;;
44358;SDS011;30077;52.474;13.326;2022-09-01T01:49:49;1.88;;;0.93;;
44358;SDS011;30077;52.474;13.326;2022-09-01T01:54:49;4.03;;;1.05;;
44358;SDS011;30077;52.474;13.326;2022-09-01T01:59:49;2.00;;;1.10;;
44358;SDS011;30077;52.474;13.326;2022-09-01T02:04:49;2.05;;;1.42;;
44358;SDS011;30077;52.474;13.326;2022-09-01T02:09:50;2.10;;;1.13;;
44358;SDS011;30077;52.474;13.326;2022-09-01T02:14:50;1.67;;;1.00;;
44358;SDS011;30077;52.474;13.326;2022-09-01T02:19:54;1.75;;;1.10;;
44358;SDS011;30077;52.474;13.326;2022-09-01T02:24:56;3.17;;;1.40;;
44358;SDS011;30077;52.474;13.326;2022-09-01T02:29:56;1.35;;;1.23;;
44358;SDS011;30077;52.474;13.326;2022-09-01T02:34:57;2.22;;;0.98;;
44358;SDS011;30077;52.474;13.326;2022-09-01T02:40:00;2.80;;;1.30;;
44358;SDS011;30077;52.474;13.326;2022-09-01T02:45:00;2.78;;;1.20;;
44358;SDS011;30077;52.474;13.326;2022-09-01T02:50:02;4.70;;;1.30;;
44358;SDS011;30077;52.474;13.326;2022-09-01T02:55:03;1.98;;;1.08;;
44358;SDS011;30077;52.474;13.326;2022-09-01T03:00:05;2.83;;;1.10;;
44358;SDS011;30077;52.474;13.326;2022-09-01T03:05:19;3.83;;;1.33;;
44358;SDS011;30077;52.474;13.326;2022-09-01T03:10:24;2.33;;;1.40;;
44358;SDS011;30077;52.474;13.326;2022-09-01T03:15:31;2.13;;;1.52;;
44358;SDS011;30077;52.474;13.326;2022-09-01T03:20:33;3.35;;;1.10;;
44358;SDS011;30077;52.474;13.326;2022-09-01T03:25:35;2.20;;;1.42;;
44358;SDS011;30077;52.474;13.326;2022-09-01T03:30:36;1.98;;;1.40;;
44358;SDS011;30077;52.474;13.326;2022-09-01T03:35:39;5.57;;;1.80;;
44358;SDS011;30077;52.474;13.326;2022-09-01T03:40:40;3.08;;;1.80;;
44358;SDS011;30077;52.474;13.326;2022-09-01T03:45:40;2.88;;;1.30;;
44358;SDS011;30077;52.474;13.326;2022-09-01T03:50:41;4.37;;;1.57;;
44358;SDS011;30077;52.474;13.326;2022-09-01T03:55:45;4.90;;;1.80;;
44358;SDS011;30077;52.474;13.326;2022-09-01T04:00:51;4.30;;;1.60;;
44358;SDS011;30077;52.474;13.326;2022-09-01T04:06:00;3.05;;;1.60;;
44358;SDS011;30077;52.474;13.326;2022-09-01T04:11:09;5.70;;;1.75;;
44358;SDS011;30077;52.474;13.326;2022-09-01T04:16:16;3.88;;;1.60;;
44358;SDS011;30077;52.474;13.326;2022-09-01T04:21:38;5.63;;;2.13;;
44358;SDS011;30077;52.474;13.326;2022-09-01T04:26:39;5.25;;;1.77;;
44358;SDS011;30077;52.474;13.326;2022-09-01T04:31:40;3.00;;;1.65;;
44358;SDS011;30077;52.474;13.326;2022-09-01T04:36:42;5.22;;;2.60;;
44358;SDS011;30077;52.474;13.326;2022-09-01T04:41:44;3.33;;;2.20;;
44358;SDS011;30077;52.474;13.326;2022-09-01T04:46:45;3.63;;;2.45;;
44358;SDS011;30077;52.474;13.326;2022-09-01T04:51:48;4.00;;;2.53;;
44358;SDS011;30077;52.474;13.326;2022-09-01T04:56:50;7.63;;;2.67;;
44358;SDS011;30077;52.474;13.326;2022-09-01T05:01:51;5.70;;;2.55;;
44358;SDS011;30077;52.474;13.326;2022-09-01T05:06:56;4.05;;;2.40;;
44358;SDS011;30077;52.474;13.326;2022-09-01T05:11:59;3.92;;;2.25;;
44358;SDS011;30077;52.474;13.326;2022-09-01T05:17:10;7.25;;;2.28;;
44358;SDS011;30077;52.474;13.326;2022-09-01T05:22:12;3.10;;;2.38;;
44358;SDS011;30077;52.474;13.326;2022-09-01T05:27:13;3.97;;;2.10;;
44358;SDS011;30077;52.474;13.326;2022-09-01T05:32:14;4.20;;;2.50;;
44358;SDS011;30077;52.474;13.326;2022-09-01T05:37:14;6.43;;;2.20;;
44358;SDS011;30077;52.474;13.326;2022-09-01T05:42:14;5.20;;;2.30;;
44358;SDS011;30077;52.474;13.326;2022-09-01T05:47:16;8.65;;;2.75;;
44358;SDS011;30077;52.474;13.326;2022-09-01T05:52:17;6.40;;;1.88;;
44358;SDS011;30077;52.474;13.326;2022-09-01T05:57:23;4.82;;;2.13;;
44358;SDS011;30077;52.474;13.326;2022-09-01T06:02:24;8.20;;;3.15;;
44358;SDS011;30077;52.474;13.326;2022-09-01T06:07:25;4.53;;;2.10;;
44358;SDS011;30077;52.474;13.326;2022-09-01T06:12:29;4.47;;;2.28;;
44358;SDS011;30077;52.474;13.326;2022-09-01T06:17:29;5.22;;;2.05;;
44358;SDS011;30077;52.474;13.326;2022-09-01T06:22:30;6.68;;;2.30;;
44358;SDS011;30077;52.474;13.326;2022-09-01T06:27:33;6.63;;;2.42;;
44358;SDS011;30077;52.474;13.326;2022-09-01T06:32:41;8.48;;;2.58;;
44358;SDS011;30077;52.474;13.326;2022-09-01T06:37:45;8.93;;;2.70;;
44358;SDS011;30077;52.474;13.326;2022-09-01T06:42:48;4.10;;;2.08;;
44358;SDS011;30077;52.474;13.326;2022-09-01T06:47:51;5.00;;;1.70;;
44358;SDS011;30077;52.474;13.326;2022-09-01T06:52:52;5.13;;;1.60;;
44358;SDS011;30077;52.474;13.326;2022-09-01T06:58:00;4.68;;;1.80;;
44358;SDS011;30077;52.474;13.326;2022-09-01T07:03:03;3.70;;;1.70;;
44358;SDS011;30077;52.474;13.326;2022-09-01T07:08:08;5.28;;;1.58;;
44358;SDS011;30077;52.474;13.326;2022-09-01T07:13:12;3.72;;;1.60;;
44358;SDS011;30077;52.474;13.326;2022-09-01T07:18:19;4.65;;;1.67;;
44358;SDS011;30077;52.474;13.326;2022-09-01T07:23:21;4.38;;;1.45;;
44358;SDS011;30077;52.474;13.326;2022-09-01T07:28:23;6.93;;;1.30;;
44358;SDS011;30077;52.474;13.326;2022-09-01T07:33:28;2.35;;;1.10;;
44358;SDS011;30077;52.474;13.326;2022-09-01T07:38:30;3.73;;;1.30;;
44358;SDS011;30077;52.474;13.326;2022-09-01T07:43:31;4.80;;;1.40;;
44358;SDS011;30077;52.474;13.326;2022-09-01T07:48:32;5.57;;;1.67;;
44358;SDS011;30077;52.474;13.326;2022-09-01T07:53:34;4.28;;;1.33;;
44358;SDS011;30077;52.474;13.326;2022-09-01T07:58:35;5.40;;;1.90;;
44358;SDS011;30077;52.474;13.326;2022-09-01T08:03:37;10.82;;;1.73;;
44358;SDS011;30077;52.474;13.326;2022-09-01T08:08:39;4.50;;;1.10;;
44358;SDS011;30077;52.474;13.326;2022-09-01T08:13:40;2.70;;;1.20;;
44358;SDS011;30077;52.474;13.326;2022-09-01T08:18:41;5.43;;;1.38;;
44358;SDS011;30077;52.474;13.326;2022-09-01T08:23:41;5.22;;;1.27;;
44358;SDS011;30077;52.474;13.326;2022-09-01T08:28:42;1.87;;;1.30;;
44358;SDS011;30077;52.474;13.326;2022-09-01T08:33:43;1.40;;;0.90;;
44358;SDS011;30077;52.474;13.326;2022-09-01T08:38:45;1.98;;;1.00;;
44358;SDS011;30077;52.474;13.326;2022-09-01T08:49:19;4.20;;;1.10;;
44358;SDS011;30077;52.474;13.326;2022-09-01T08:59:31;1.90;;;1.20;;
44358;SDS011;30077;52.474;13.326;2022-09-01T09:15:50;1.88;;;1.30;;
44358;SDS011;30077;52.474;13.326;2022-09-01T09:20:56;2.88;;;1.10;;
44358;SDS011;30077;52.474;13.326;2022-09-01T09:26:06;6.05;;;1.17;;
44358;SDS011;30077;52.474;13.326;2022-09-01T09:36:47;4.53;;;1.45;;
44358;SDS011;30077;52.474;13.326;2022-09-01T09:42:09;8.43;;;1.33;;
44358;SDS011;30077;52.474;13.326;2022-09-01T09:47:23;1.98;;;1.10;;
44358;SDS011;30077;52.474;13.326;2022-09-01T09:52:35;2.42;;;1.33;;
44358;SDS011;30077;52.474;13.326;2022-09-01T09:57:37;1.65;;;0.98;;
44358;SDS011;30077;52.474;13.326;2022-09-01T10:02:43;2.67;;;1.00;;
44358;SDS011;30077;52.474;13.326;2022-09-01T10:07:45;2.15;;;0.90;;
44358;SDS011;30077;52.474;13.326;2022-09-01T10:12:45;1.92;;;1.10;;
44358;SDS011;30077;52.474;13.326;2022-09-01T10:17:45;1.02;;;0.80;;
44358;SDS011;30077;52.474;13.326;2022-09-01T10:22:48;3.20;;;1.10;;
44358;SDS011;30077;52.474;13.326;2022-09-01T10:27:50;1.90;;;0.90;;
44358;SDS011;30077;52.474;13.326;2022-09-01T10:32:57;2.30;;;1.20;;
44358;SDS011;30077;52.474;13.326;2022-09-01T10:38:02;4.35;;;0.95;;
44358;SDS011;30077;52.474;13.326;2022-09-01T10:43:26;2.30;;;0.75;;
44358;SDS011;30077;52.474;13.326;2022-09-01T10:48:32;2.28;;;0.85;;
44358;SDS011;30077;52.474;13.326;2022-09-01T10:58:41;3.67;;;0.85;;
44358;SDS011;30077;52.474;13.326;2022-09-01T11:03:50;3.50;;;1.02;;
44358;SDS011;30077;52.474;13.326;2022-09-01T11:08:56;3.03;;;0.88;;
44358;SDS011;30077;52.474;13.326;2022-09-01T11:14:01;1.20;;;0.75;;
44358;SDS011;30077;52.474;13.326;2022-09-01T11:34:55;3.13;;;0.95;;
44358;SDS011;30077;52.474;13.326;2022-09-01T11:40:00;3.20;;;0.90;;
44358;SDS011;30077;52.474;13.326;2022-09-01T11:45:13;7.97;;;1.08;;
44358;SDS011;30077;52.474;13.326;2022-09-01T11:55:41;3.72;;;1.45;;
44358;SDS011;30077;52.474;13.326;2022-09-01T12:00:43;2.05;;;0.80;;
44358;SDS011;30077;52.474;13.326;2022-09-01T12:05:43;0.70;;;0.70;;
44358;SDS011;30077;52.474;13.326;2022-09-01T12:10:48;3.28;;;1.25;;
44358;SDS011;30077;52.474;13.326;2022-09-01T12:15:59;1.57;;;0.80;;
44358;SDS011;30077;52.474;13.326;2022-09-01T12:26:04;3.10;;;1.70;;
44358;SDS011;30077;52.474;13.326;2022-09-01T12:31:07;1.10;;;0.80;;
44358;SDS011;30077;52.474;13.326;2022-09-01T12:36:14;4.03;;;0.93;;
44358;SDS011;30077;52.474;13.326;2022-09-01T12:41:22;3.05;;;1.02;;
44358;SDS011;30077;52.474;13.326;2022-09-01T12:46:43;3.67;;;0.98;;
44358;SDS011;30077;52.474;13.326;2022-09-01T12:51:44;2.53;;;1.13;;
44358;SDS011;30077;52.474;13.326;2022-09-01T12:56:48;2.97;;;1.25;;
44358;SDS011;30077;52.474;13.326;2022-09-01T13:01:50;1.27;;;0.90;;
44358;SDS011;30077;52.474;13.326;2022-09-01T13:06:51;2.53;;;1.00;;
44358;SDS011;30077;52.474;13.326;2022-09-01T13:12:00;1.30;;;1.20;;
44358;SDS011;30077;52.474;13.326;2022-09-01T13:17:08;3.17;;;1.10;;
44358;SDS011;30077;52.474;13.326;2022-09-01T13:22:09;2.10;;;0.85;;
44358;SDS011;30077;52.474;13.326;2022-09-01T13:27:10;0.53;;;0.53;;
44358;SDS011;30077;52.474;13.326;2022-09-01T13:32:12;1.83;;;0.80;;
44358;SDS011;30077;52.474;13.326;2022-09-01T13:37:12;2.20;;;0.90;;
44358;SDS011;30077;52.474;13.326;2022-09-01T13:42:13;4.78;;;1.08;;
44358;SDS011;30077;52.474;13.326;2022-09-01T13:47:16;1.40;;;1.02;;
44358;SDS011;30077;52.474;13.326;2022-09-01T13:52:16;3.20;;;0.97;;
44358;SDS011;30077;52.474;13.326;2022-09-01T13:57:17;4.35;;;0.90;;
44358;SDS011;30077;52.474;13.326;2022-09-01T14:02:17;1.77;;;0.90;;
44358;SDS011;30077;52.474;13.326;2022-09-01T14:07:18;3.00;;;0.88;;
44358;SDS011;30077;52.474;13.326;2022-09-01T14:12:19;1.35;;;0.90;;
44358;SDS011;30077;52.474;13.326;2022-09-01T14:17:19;1.90;;;0.90;;
44358;SDS011;30077;52.474;13.326;2022-09-01T14:22:19;2.35;;;0.88;;
44358;SDS011;30077;52.474;13.326;2022-09-01T14:27:21;2.63;;;0.93;;
44358;SDS011;30077;52.474;13.326;2022-09-01T14:32:21;1.30;;;1.00;;
44358;SDS011;30077;52.474;13.326;2022-09-01T14:37:25;3.67;;;0.93;;
44358;SDS011;30077;52.474;13.326;2022-09-01T14:42:26;2.83;;;0.80;;
44358;SDS011;30077;52.474;13.326;2022-09-01T14:47:27;4.33;;;1.07;;
44358;SDS011;30077;52.474;13.326;2022-09-01T14:52:28;2.03;;;0.90;;
44358;SDS011;30077;52.474;13.326;2022-09-01T14:57:30;1.70;;;0.90;;
44358;SDS011;30077;52.474;13.326;2022-09-01T15:02:33;2.78;;;0.90;;
44358;SDS011;30077;52.474;13.326;2022-09-01T15:07:34;1.55;;;0.73;;
44358;SDS011;30077;52.474;13.326;2022-09-01T15:12:35;4.72;;;1.00;;
44358;SDS011;30077;52.474;13.326;2022-09-01T15:17:35;2.10;;;0.90;;
44358;SDS011;30077;52.474;13.326;2022-09-01T15:22:36;3.43;;;0.87;;
44358;SDS011;30077;52.474;13.326;2022-09-01T15:27:37;4.03;;;1.15;;
44358;SDS011;30077;52.474;13.326;2022-09-01T15:32:37;3.33;;;0.80;;
44358;SDS011;30077;52.474;13.326;2022-09-01T15:42:40;1.50;;;0.77;;
44358;SDS011;30077;52.474;13.326;2022-09-01T15:47:41;1.33;;;0.83;;
44358;SDS011;30077;52.474;13.326;2022-09-01T15:52:46;5.55;;;1.13;;
44358;SDS011;30077;52.474;13.326;2022-09-01T15:57:48;4.07;;;1.08;;
44358;SDS011;30077;52.474;13.326;2022-09-01T16:02:49;3.85;;;0.98;;
44358;SDS011;30077;52.474;13.326;2022-09-01T16:07:50;2.95;;;1.40;;
44358;SDS011;30077;52.474;13.326;2022-09-01T16:12:51;2.65;;;1.20;;
44358;SDS011;30077;52.474;13.326;2022-09-01T16:18:07;1.90;;;1.10;;
44358;SDS011;30077;52.474;13.326;2022-09-01T16:23:18;1.35;;;1.00;;
44358;SDS011;30077;52.474;13.326;2022-09-01T16:28:30;2.72;;;1.30;;
44358;SDS011;30077;52.474;13.326;2022-09-01T16:33:34;3.28;;;1.30;;
44358;SDS011;30077;52.474;13.326;2022-09-01T16:43:54;3.15;;;1.48;;
44358;SDS011;30077;52.474;13.326;2022-09-01T16:49:07;2.03;;;1.10;;
44358;SDS011;30077;52.474;13.326;2022-09-01T16:54:53;1.33;;;0.93;;
44358;SDS011;30077;52.474;13.326;2022-09-01T17:00:09;4.80;;;1.42;;
44358;SDS011;30077;52.474;13.326;2022-09-01T17:05:32;1.33;;;0.95;;
44358;SDS011;30077;52.474;13.326;2022-09-01T17:10:49;4.72;;;1.20;;
44358;SDS011;30077;52.474;13.326;2022-09-01T17:15:56;4.07;;;1.52;;
44358;SDS011;30077;52.474;13.326;2022-09-01T17:21:10;3.63;;;1.65;;
44358;SDS011;30077;52.474;13.326;2022-09-01T17:26:33;3.80;;;1.60;;
44358;SDS011;30077;52.474;13.326;2022-09-01T17:37:03;4.93;;;1.45;;
44358;SDS011;30077;52.474;13.326;2022-09-01T17:47:32;2.10;;;1.40;;
44358;SDS011;30077;52.474;13.326;2022-09-01T17:52:43;2.60;;;1.35;;
44358;SDS011;30077;52.474;13.326;2022-09-01T18:03:46;2.08;;;1.88;;
44358;SDS011;30077;52.474;13.326;2022-09-01T18:09:10;6.97;;;2.65;;
44358;SDS011;30077;52.474;13.326;2022-09-01T18:14:19;2.55;;;2.15;;
44358;SDS011;30077;52.474;13.326;2022-09-01T18:19:24;2.47;;;1.55;;
44358;SDS011;30077;52.474;13.326;2022-09-01T18:24:33;2.85;;;1.90;;
44358;SDS011;30077;52.474;13.326;2022-09-01T18:29:47;3.20;;;1.85;;
44358;SDS011;30077;52.474;13.326;2022-09-01T18:34:57;4.07;;;2.53;;
44358;SDS011;30077;52.474;13.326;2022-09-01T18:40:27;4.95;;;2.33;;
44358;SDS011;30077;52.474;13.326;2022-09-01T18:45:42;6.35;;;2.38;;
44358;SDS011;30077;52.474;13.326;2022-09-01T18:50:50;3.20;;;1.52;;
44358;SDS011;30077;52.474;13.326;2022-09-01T19:01:36;5.03;;;2.05;;
44358;SDS011;30077;52.474;13.326;2022-09-01T19:12:22;4.13;;;2.20;;
44358;SDS011;30077;52.474;13.326;2022-09-01T19:17:52;3.50;;;2.28;;
44358;SDS011;30077;52.474;13.326;2022-09-01T19:29:04;4.78;;;2.63;;
44358;SDS011;30077;52.474;13.326;2022-09-01T19:34:12;4.95;;;1.85;;
44358;SDS011;30077;52.474;13.326;2022-09-01T19:39:19;5.63;;;2.53;;
44358;SDS011;30077;52.474;13.326;2022-09-01T19:49:31;3.70;;;2.00;;
44358;SDS011;30077;52.474;13.326;2022-09-01T19:54:38;2.83;;;1.90;;
44358;SDS011;30077;52.474;13.326;2022-09-01T19:59:55;5.57;;;2.03;;
44358;SDS011;30077;52.474;13.326;2022-09-01T20:05:23;2.50;;;2.08;;
44358;SDS011;30077;52.474;13.326;2022-09-01T20:10:35;3.42;;;1.70;;
44358;SDS011;30077;52.474;13.326;2022-09-01T20:15:49;3.60;;;2.20;;
44358;SDS011;30077;52.474;13.326;2022-09-01T20:20:52;2.72;;;2.08;;
44358;SDS011;30077;52.474;13.326;2022-09-01T20:26:12;4.20;;;2.60;;
44358;SDS011;30077;52.474;13.326;2022-09-01T20:31:30;4.13;;;2.53;;
44358;SDS011;30077;52.474;13.326;2022-09-01T20:36:35;4.68;;;2.80;;
44358;SDS011;30077;52.474;13.326;2022-09-01T20:46:55;5.28;;;2.22;;
44358;SDS011;30077;52.474;13.326;2022-09-01T20:51:59;4.40;;;2.78;;
44358;SDS011;30077;52.474;13.326;2022-09-01T20:57:17;3.92;;;2.47;;
44358;SDS011;30077;52.474;13.326;2022-09-01T21:07:52;5.60;;;2.55;;
44358;SDS011;30077;52.474;13.326;2022-09-01T21:18:46;10.75;;;3.08;;
44358;SDS011;30077;52.474;13.326;2022-09-01T21:24:03;4.72;;;3.03;;
44358;SDS011;30077;52.474;13.326;2022-09-01T21:29:21;5.38;;;3.20;;
44358;SDS011;30077;52.474;13.326;2022-09-01T21:34:35;5.40;;;2.90;;
44358;SDS011;30077;52.474;13.326;2022-09-01T21:39:36;5.05;;;2.90;;
44358;SDS011;30077;52.474;13.326;2022-09-01T21:44:36;3.65;;;2.45;;
44358;SDS011;30077;52.474;13.326;2022-09-01T21:49:38;3.87;;;2.37;;
44358;SDS011;30077;52.474;13.326;2022-09-01T21:54:45;4.35;;;2.28;;
44358;SDS011;30077;52.474;13.326;2022-09-01T21:59:45;4.93;;;2.05;;
44358;SDS011;30077;52.474;13.326;2022-09-01T22:04:46;5.88;;;2.20;;
44358;SDS011;30077;52.474;13.326;2022-09-01T22:09:47;5.80;;;2.00;;
44358;SDS011;30077;52.474;13.326;2022-09-01T22:14:48;2.30;;;1.77;;
44358;SDS011;30077;52.474;13.326;2022-09-01T22:19:49;6.97;;;1.85;;
44358;SDS011;30077;52.474;13.326;2022-09-01T22:29:52;2.58;;;1.70;;
44358;SDS011;30077;52.474;13.326;2022-09-01T22:34:52;5.43;;;2.03;;
44358;SDS011;30077;52.474;13.326;2022-09-01T22:39:52;3.40;;;2.10;;
44358;SDS011;30077;52.474;13.326;2022-09-01T22:44:52;2.85;;;1.88;;
44358;SDS011;30077;52.474;13.326;2022-09-01T22:49:53;4.83;;;1.70;;
44358;SDS011;30077;52.474;13.326;2022-09-01T22:54:54;2.95;;;1.67;;
44358;SDS011;30077;52.474;13.326;2022-09-01T22:59:56;2.00;;;1.67;;
44358;SDS011;30077;52.474;13.326;2022-09-01T23:04:56;4.10;;;1.80;;
44358;SDS011;30077;52.474;13.326;2022-09-01T23:09:56;2.50;;;1.80;;
44358;SDS011;30077;52.474;13.326;2022-09-01T23:14:57;2.83;;;1.60;;
44358;SDS011;30077;52.474;13.326;2022-09-01T23:19:57;2.28;;;1.38;;
44358;SDS011;30077;52.474;13.326;2022-09-01T23:25:01;4.38;;;2.10;;
44358;SDS011;30077;52.474;13.326;2022-09-01T23:30:02;4.20;;;3.00;;
44358;SDS011;30077;52.474;13.326;2022-09-01T23:35:04;3.85;;;2.75;;
44358;SDS011;30077;52.474;13.326;2022-09-01T23:40:05;3.35;;;2.33;;
44358;SDS011;30077;52.474;13.326;2022-09-01T23:50:08;4.70;;;2.05;;
44358;SDS011;30077;52.474;13.326;2022-09-01T23:55:09;4.07;;;1.88;;
